Terminal Aerodrome Forecast
Issued by NWS Louisville, KY

Current Version | Previous Version | Text Only | Print | Product List | Glossary On
Versions: 1 2 3 4 5 6 7 8 9 10 11 12 13 14 15 16 17
000
FTUS43 KLMK 232339
TAFSDF
TAF
KSDF 232339Z 2400/2506 16007KT P6SM BKN050
     FM240700 18012KT P6SM SCT030
     FM241500 20017G25KT P6SM BKN040
     FM250100 22012G20KT 4SM SHRA VCTS OVC030CB=

USA.gov is the U.S. government's official web portal to all federal, state and local government web resources and services.